sensor_id;sensor_type;location;lat;lon;timestamp;temperature;humidity
4556;DHT22;2290;48.674;9.018;2023-02-28T00:00:47;-0.40;98.50
4556;DHT22;2290;48.674;9.018;2023-02-28T00:03:15;-0.40;98.60
4556;DHT22;2290;48.674;9.018;2023-02-28T00:05:41;-0.40;98.60
4556;DHT22;2290;48.674;9.018;2023-02-28T00:08:07;-0.40;98.50
4556;DHT22;2290;48.674;9.018;2023-02-28T00:10:33;-0.40;98.40
4556;DHT22;2290;48.674;9.018;2023-02-28T00:13:02;-0.40;98.50
4556;DHT22;2290;48.674;9.018;2023-02-28T00:15:28;-0.40;98.50
4556;DHT22;2290;48.674;9.018;2023-02-28T00:17:53;-0.40;98.50
4556;DHT22;2290;48.674;9.018;2023-02-28T00:20:19;-0.50;98.40
4556;DHT22;2290;48.674;9.018;2023-02-28T00:22:48;-0.50;98.60
4556;DHT22;2290;48.674;9.018;2023-02-28T00:25:16;-0.50;98.50
4556;DHT22;2290;48.674;9.018;2023-02-28T00:27:42;-0.40;98.60
4556;DHT22;2290;48.674;9.018;2023-02-28T00:30:12;-0.50;98.60
4556;DHT22;2290;48.674;9.018;2023-02-28T00:32:39;-0.50;98.60
4556;DHT22;2290;48.674;9.018;2023-02-28T00:35:05;-0.50;98.80
4556;DHT22;2290;48.674;9.018;2023-02-28T00:37:32;-0.60;98.90
4556;DHT22;2290;48.674;9.018;2023-02-28T00:39:58;-0.60;98.90
4556;DHT22;2290;48.674;9.018;2023-02-28T00:42:29;-0.50;98.90
4556;DHT22;2290;48.674;9.018;2023-02-28T00:44:57;-0.50;98.90
4556;DHT22;2290;48.674;9.018;2023-02-28T00:47:23;-0.50;99.00
4556;DHT22;2290;48.674;9.018;2023-02-28T00:49:49;-0.50;99.10
4556;DHT22;2290;48.674;9.018;2023-02-28T00:52:14;-0.50;99.10
4556;DHT22;2290;48.674;9.018;2023-02-28T00:54:41;-0.50;99.00
4556;DHT22;2290;48.674;9.018;2023-02-28T00:57:07;-0.60;99.00
4556;DHT22;2290;48.674;9.018;2023-02-28T00:59:33;-0.60;99.20
4556;DHT22;2290;48.674;9.018;2023-02-28T01:01:58;-0.60;99.20
4556;DHT22;2290;48.674;9.018;2023-02-28T01:04:24;-0.60;99.00
4556;DHT22;2290;48.674;9.018;2023-02-28T01:06:49;-0.60;99.20
4556;DHT22;2290;48.674;9.018;2023-02-28T01:09:15;-0.60;99.20
4556;DHT22;2290;48.674;9.018;2023-02-28T01:11:44;-0.70;99.30
4556;DHT22;2290;48.674;9.018;2023-02-28T01:14:15;-0.60;99.20
4556;DHT22;2290;48.674;9.018;2023-02-28T01:16:41;-0.60;99.20
4556;DHT22;2290;48.674;9.018;2023-02-28T01:19:08;-0.70;99.40
4556;DHT22;2290;48.674;9.018;2023-02-28T01:21:34;-0.80;99.60
4556;DHT22;2290;48.674;9.018;2023-02-28T01:24:02;-0.70;99.60
4556;DHT22;2290;48.674;9.018;2023-02-28T01:26:31;-0.70;99.50
4556;DHT22;2290;48.674;9.018;2023-02-28T01:28:57;-0.70;99.70
4556;DHT22;2290;48.674;9.018;2023-02-28T01:31:24;-0.80;99.80
4556;DHT22;2290;48.674;9.018;2023-02-28T01:33:51;-0.80;99.80
4556;DHT22;2290;48.674;9.018;2023-02-28T01:36:23;-0.90;99.90
4556;DHT22;2290;48.674;9.018;2023-02-28T01:38:49;-0.90;99.90
4556;DHT22;2290;48.674;9.018;2023-02-28T01:41:23;-1.00;99.90
4556;DHT22;2290;48.674;9.018;2023-02-28T01:43:55;-1.00;99.90
4556;DHT22;2290;48.674;9.018;2023-02-28T01:46:20;-1.00;99.90
4556;DHT22;2290;48.674;9.018;2023-02-28T01:49:17;-1.00;99.90
4556;DHT22;2290;48.674;9.018;2023-02-28T01:51:54;-1.00;99.90
4556;DHT22;2290;48.674;9.018;2023-02-28T01:54:25;-1.00;99.90
4556;DHT22;2290;48.674;9.018;2023-02-28T01:57:00;-1.00;99.90
4556;DHT22;2290;48.674;9.018;2023-02-28T01:59:38;-0.90;99.90
4556;DHT22;2290;48.674;9.018;2023-02-28T02:02:07;-1.00;99.90
4556;DHT22;2290;48.674;9.018;2023-02-28T02:04:39;-0.90;99.90
4556;DHT22;2290;48.674;9.018;2023-02-28T02:07:08;-0.90;99.90
4556;DHT22;2290;48.674;9.018;2023-02-28T02:09:35;-1.00;99.90
4556;DHT22;2290;48.674;9.018;2023-02-28T02:12:33;-1.00;99.90
4556;DHT22;2290;48.674;9.018;2023-02-28T02:15:20;-1.00;99.90
4556;DHT22;2290;48.674;9.018;2023-02-28T02:17:52;-1.00;99.90
4556;DHT22;2290;48.674;9.018;2023-02-28T02:20:51;-1.00;99.90
4556;DHT22;2290;48.674;9.018;2023-02-28T02:23:58;-1.00;99.90
4556;DHT22;2290;48.674;9.018;2023-02-28T02:26:51;-1.10;99.90
4556;DHT22;2290;48.674;9.018;2023-02-28T02:35:31;-1.10;99.90
4556;DHT22;2290;48.674;9.018;2023-02-28T02:40:59;-1.10;99.90
4556;DHT22;2290;48.674;9.018;2023-02-28T02:43:36;-1.10;99.90
4556;DHT22;2290;48.674;9.018;2023-02-28T02:46:08;-1.10;99.90
4556;DHT22;2290;48.674;9.018;2023-02-28T02:48:37;-1.10;99.90
4556;DHT22;2290;48.674;9.018;2023-02-28T02:51:07;-1.10;99.90
4556;DHT22;2290;48.674;9.018;2023-02-28T02:53:58;-1.10;99.90
4556;DHT22;2290;48.674;9.018;2023-02-28T02:56:28;-1.00;99.90
4556;DHT22;2290;48.674;9.018;2023-02-28T02:58:59;-1.00;99.90
4556;DHT22;2290;48.674;9.018;2023-02-28T03:01:29;-0.90;99.90
4556;DHT22;2290;48.674;9.018;2023-02-28T03:04:01;-0.90;99.90
4556;DHT22;2290;48.674;9.018;2023-02-28T03:06:29;-0.90;99.90
4556;DHT22;2290;48.674;9.018;2023-02-28T03:08:54;-0.90;99.90
4556;DHT22;2290;48.674;9.018;2023-02-28T03:11:20;-1.00;99.90
4556;DHT22;2290;48.674;9.018;2023-02-28T03:13:59;-1.00;99.90
4556;DHT22;2290;48.674;9.018;2023-02-28T03:25:41;-0.90;99.90
4556;DHT22;2290;48.674;9.018;2023-02-28T03:28:18;-0.80;99.90
4556;DHT22;2290;48.674;9.018;2023-02-28T03:32:02;-0.80;99.90
4556;DHT22;2290;48.674;9.018;2023-02-28T03:34:00;-0.80;99.90
4556;DHT22;2290;48.674;9.018;2023-02-28T03:36:30;-0.80;99.90
4556;DHT22;2290;48.674;9.018;2023-02-28T03:38:59;-0.80;99.90
4556;DHT22;2290;48.674;9.018;2023-02-28T03:42:02;-0.80;99.90
4556;DHT22;2290;48.674;9.018;2023-02-28T03:44:44;-0.70;99.90
4556;DHT22;2290;48.674;9.018;2023-02-28T03:47:16;-0.70;99.90
4556;DHT22;2290;48.674;9.018;2023-02-28T03:49:47;-0.70;99.90
4556;DHT22;2290;48.674;9.018;2023-02-28T03:52:20;-0.70;99.90
4556;DHT22;2290;48.674;9.018;2023-02-28T03:54:52;-0.70;99.90
4556;DHT22;2290;48.674;9.018;2023-02-28T03:57:59;-0.70;99.90
4556;DHT22;2290;48.674;9.018;2023-02-28T04:00:35;-0.70;99.90
4556;DHT22;2290;48.674;9.018;2023-02-28T04:03:03;-0.60;99.90
4556;DHT22;2290;48.674;9.018;2023-02-28T04:05:29;-0.60;99.90
4556;DHT22;2290;48.674;9.018;2023-02-28T04:08:07;-0.70;99.90
4556;DHT22;2290;48.674;9.018;2023-02-28T04:10:34;-0.60;99.90
4556;DHT22;2290;48.674;9.018;2023-02-28T04:13:00;-0.60;99.90
4556;DHT22;2290;48.674;9.018;2023-02-28T04:15:27;-0.60;99.90
4556;DHT22;2290;48.674;9.018;2023-02-28T04:17:53;-0.70;99.90
4556;DHT22;2290;48.674;9.018;2023-02-28T04:20:21;-0.70;99.90
4556;DHT22;2290;48.674;9.018;2023-02-28T04:22:48;-0.60;99.90
4556;DHT22;2290;48.674;9.018;2023-02-28T04:25:14;-0.60;99.90
4556;DHT22;2290;48.674;9.018;2023-02-28T04:27:40;-0.60;99.90
4556;DHT22;2290;48.674;9.018;2023-02-28T04:30:06;-0.70;99.90
4556;DHT22;2290;48.674;9.018;2023-02-28T04:32:33;-0.70;99.90
4556;DHT22;2290;48.674;9.018;2023-02-28T04:34:59;-0.70;99.90
4556;DHT22;2290;48.674;9.018;2023-02-28T04:37:24;-0.70;99.90
4556;DHT22;2290;48.674;9.018;2023-02-28T04:39:54;-0.70;99.90
4556;DHT22;2290;48.674;9.018;2023-02-28T04:42:20;-0.60;99.90
4556;DHT22;2290;48.674;9.018;2023-02-28T04:44:45;-0.60;99.90
4556;DHT22;2290;48.674;9.018;2023-02-28T04:47:12;-0.60;99.90
4556;DHT22;2290;48.674;9.018;2023-02-28T04:49:38;-0.60;99.90
4556;DHT22;2290;48.674;9.018;2023-02-28T04:52:04;-0.60;99.90
4556;DHT22;2290;48.674;9.018;2023-02-28T04:54:30;-0.60;99.90
4556;DHT22;2290;48.674;9.018;2023-02-28T04:56:56;-0.60;99.90
4556;DHT22;2290;48.674;9.018;2023-02-28T04:59:22;-0.60;99.90
4556;DHT22;2290;48.674;9.018;2023-02-28T05:01:49;-0.60;99.90
4556;DHT22;2290;48.674;9.018;2023-02-28T05:04:16;-0.60;99.90
4556;DHT22;2290;48.674;9.018;2023-02-28T05:06:43;-0.60;99.90
4556;DHT22;2290;48.674;9.018;2023-02-28T05:09:09;-0.60;99.90
4556;DHT22;2290;48.674;9.018;2023-02-28T05:11:38;-0.70;99.90
4556;DHT22;2290;48.674;9.018;2023-02-28T05:14:14;-0.70;99.90
4556;DHT22;2290;48.674;9.018;2023-02-28T05:16:42;-0.60;99.90
4556;DHT22;2290;48.674;9.018;2023-02-28T05:19:07;-0.60;99.90
4556;DHT22;2290;48.674;9.018;2023-02-28T05:24:09;-0.70;99.90
4556;DHT22;2290;48.674;9.018;2023-02-28T05:26:44;-0.60;99.90
4556;DHT22;2290;48.674;9.018;2023-02-28T05:29:10;-0.60;99.90
4556;DHT22;2290;48.674;9.018;2023-02-28T05:31:36;-0.60;99.90
4556;DHT22;2290;48.674;9.018;2023-02-28T05:34:02;-0.60;99.90
4556;DHT22;2290;48.674;9.018;2023-02-28T05:36:29;-0.50;99.90
4556;DHT22;2290;48.674;9.018;2023-02-28T05:38:55;-0.50;99.90
4556;DHT22;2290;48.674;9.018;2023-02-28T05:41:21;-0.40;99.90
4556;DHT22;2290;48.674;9.018;2023-02-28T05:43:47;-0.40;99.90
4556;DHT22;2290;48.674;9.018;2023-02-28T05:46:13;-0.40;99.90
4556;DHT22;2290;48.674;9.018;2023-02-28T05:48:40;-0.40;99.90
4556;DHT22;2290;48.674;9.018;2023-02-28T05:51:07;-0.40;99.90
4556;DHT22;2290;48.674;9.018;2023-02-28T05:53:33;-0.40;99.90
4556;DHT22;2290;48.674;9.018;2023-02-28T05:55:59;-0.50;99.90
4556;DHT22;2290;48.674;9.018;2023-02-28T05:58:26;-0.50;99.90
4556;DHT22;2290;48.674;9.018;2023-02-28T06:01:00;-0.50;99.90
4556;DHT22;2290;48.674;9.018;2023-02-28T06:03:27;-0.50;99.90
4556;DHT22;2290;48.674;9.018;2023-02-28T06:05:52;-0.50;99.90
4556;DHT22;2290;48.674;9.018;2023-02-28T06:08:21;-0.40;99.90
4556;DHT22;2290;48.674;9.018;2023-02-28T06:10:47;-0.40;99.90
4556;DHT22;2290;48.674;9.018;2023-02-28T06:13:13;-0.40;99.90
4556;DHT22;2290;48.674;9.018;2023-02-28T06:15:41;-0.40;99.90
4556;DHT22;2290;48.674;9.018;2023-02-28T06:32:08;-0.50;99.90
4556;DHT22;2290;48.674;9.018;2023-02-28T06:42:14;-0.50;99.90
4556;DHT22;2290;48.674;9.018;2023-02-28T07:03:40;-0.50;99.90
4556;DHT22;2290;48.674;9.018;2023-02-28T07:10:10;-0.40;99.90
4556;DHT22;2290;48.674;9.018;2023-02-28T07:13:41;-0.40;99.90
4556;DHT22;2290;48.674;9.018;2023-02-28T07:16:57;-0.40;99.90
4556;DHT22;2290;48.674;9.018;2023-02-28T07:19:22;-0.40;99.90
4556;DHT22;2290;48.674;9.018;2023-02-28T07:21:48;-0.50;99.90
4556;DHT22;2290;48.674;9.018;2023-02-28T07:24:13;-0.50;99.90
4556;DHT22;2290;48.674;9.018;2023-02-28T07:26:41;-0.40;99.90
4556;DHT22;2290;48.674;9.018;2023-02-28T07:29:06;-0.30;99.90
4556;DHT22;2290;48.674;9.018;2023-02-28T07:31:32;-0.30;99.90
4556;DHT22;2290;48.674;9.018;2023-02-28T07:33:57;-0.30;99.90
4556;DHT22;2290;48.674;9.018;2023-02-28T07:36:27;-0.20;99.90
4556;DHT22;2290;48.674;9.018;2023-02-28T07:39:16;-0.10;99.90
4556;DHT22;2290;48.674;9.018;2023-02-28T07:42:14;-0.10;99.90
4556;DHT22;2290;48.674;9.018;2023-02-28T07:44:40;0.00;99.90
4556;DHT22;2290;48.674;9.018;2023-02-28T07:47:07;0.10;99.90
4556;DHT22;2290;48.674;9.018;2023-02-28T07:49:36;0.20;99.90
4556;DHT22;2290;48.674;9.018;2023-02-28T07:52:25;0.20;99.90
4556;DHT22;2290;48.674;9.018;2023-02-28T08:01:50;0.10;99.90
4556;DHT22;2290;48.674;9.018;2023-02-28T08:11:46;-0.10;99.90
4556;DHT22;2290;48.674;9.018;2023-02-28T08:15:04;-0.10;99.90
4556;DHT22;2290;48.674;9.018;2023-02-28T08:17:40;-0.10;99.90
4556;DHT22;2290;48.674;9.018;2023-02-28T08:20:42;-0.10;99.90
4556;DHT22;2290;48.674;9.018;2023-02-28T08:23:24;0.00;99.90
4556;DHT22;2290;48.674;9.018;2023-02-28T08:25:55;-0.10;99.90
4556;DHT22;2290;48.674;9.018;2023-02-28T08:28:21;-0.10;99.90
4556;DHT22;2290;48.674;9.018;2023-02-28T08:30:48;-0.10;99.90
4556;DHT22;2290;48.674;9.018;2023-02-28T08:33:16;-0.10;99.90
4556;DHT22;2290;48.674;9.018;2023-02-28T08:35:42;0.00;99.90
4556;DHT22;2290;48.674;9.018;2023-02-28T08:38:07;0.10;99.90
4556;DHT22;2290;48.674;9.018;2023-02-28T08:40:33;0.30;99.90
4556;DHT22;2290;48.674;9.018;2023-02-28T08:42:58;0.30;99.90
4556;DHT22;2290;48.674;9.018;2023-02-28T08:45:25;0.30;99.90
4556;DHT22;2290;48.674;9.018;2023-02-28T08:51:32;0.40;99.90
4556;DHT22;2290;48.674;9.018;2023-02-28T08:57:38;0.40;99.90
4556;DHT22;2290;48.674;9.018;2023-02-28T09:00:14;0.30;99.90
4556;DHT22;2290;48.674;9.018;2023-02-28T09:02:41;0.20;99.90
4556;DHT22;2290;48.674;9.018;2023-02-28T09:26:13;0.50;99.90
4556;DHT22;2290;48.674;9.018;2023-02-28T09:28:40;0.60;99.90
4556;DHT22;2290;48.674;9.018;2023-02-28T09:31:14;0.60;99.90
4556;DHT22;2290;48.674;9.018;2023-02-28T09:33:42;0.70;99.90
4556;DHT22;2290;48.674;9.018;2023-02-28T09:36:11;0.70;99.90
4556;DHT22;2290;48.674;9.018;2023-02-28T09:38:39;0.70;99.90
4556;DHT22;2290;48.674;9.018;2023-02-28T09:41:14;0.70;99.90
4556;DHT22;2290;48.674;9.018;2023-02-28T09:43:44;0.80;99.90
4556;DHT22;2290;48.674;9.018;2023-02-28T09:48:52;0.80;99.90
4556;DHT22;2290;48.674;9.018;2023-02-28T09:51:32;0.80;99.90
4556;DHT22;2290;48.674;9.018;2023-02-28T09:53:59;0.80;99.90
4556;DHT22;2290;48.674;9.018;2023-02-28T09:56:39;0.80;99.90
4556;DHT22;2290;48.674;9.018;2023-02-28T10:06:52;1.00;99.90
4556;DHT22;2290;48.674;9.018;2023-02-28T10:09:26;1.10;99.90
4556;DHT22;2290;48.674;9.018;2023-02-28T10:12:12;1.10;99.90
4556;DHT22;2290;48.674;9.018;2023-02-28T10:14:45;1.00;99.90
4556;DHT22;2290;48.674;9.018;2023-02-28T10:17:18;1.00;99.90
4556;DHT22;2290;48.674;9.018;2023-02-28T10:25:27;1.20;99.90
4556;DHT22;2290;48.674;9.018;2023-02-28T10:28:13;1.30;99.90
4556;DHT22;2290;48.674;9.018;2023-02-28T10:30:45;1.30;99.90
4556;DHT22;2290;48.674;9.018;2023-02-28T10:33:24;1.30;99.90
4556;DHT22;2290;48.674;9.018;2023-02-28T10:35:51;1.30;99.90
4556;DHT22;2290;48.674;9.018;2023-02-28T10:38:28;1.40;99.90
4556;DHT22;2290;48.674;9.018;2023-02-28T10:41:29;1.40;99.90
4556;DHT22;2290;48.674;9.018;2023-02-28T10:44:21;1.50;99.90
4556;DHT22;2290;48.674;9.018;2023-02-28T10:46:49;1.50;99.90
4556;DHT22;2290;48.674;9.018;2023-02-28T10:49:29;1.60;99.90
4556;DHT22;2290;48.674;9.018;2023-02-28T10:51:57;1.60;99.90
4556;DHT22;2290;48.674;9.018;2023-02-28T10:54:34;1.60;99.90
4556;DHT22;2290;48.674;9.018;2023-02-28T10:57:16;1.70;99.90
4556;DHT22;2290;48.674;9.018;2023-02-28T10:59:45;1.70;99.90
4556;DHT22;2290;48.674;9.018;2023-02-28T11:02:38;1.80;99.90
4556;DHT22;2290;48.674;9.018;2023-02-28T11:05:33;1.90;99.90
4556;DHT22;2290;48.674;9.018;2023-02-28T11:08:13;1.90;99.90
4556;DHT22;2290;48.674;9.018;2023-02-28T11:10:39;2.00;99.90
4556;DHT22;2290;48.674;9.018;2023-02-28T11:13:05;1.90;99.90
4556;DHT22;2290;48.674;9.018;2023-02-28T11:15:32;1.90;99.90
4556;DHT22;2290;48.674;9.018;2023-02-28T11:17:59;1.90;99.90
4556;DHT22;2290;48.674;9.018;2023-02-28T11:20:29;1.90;99.90
4556;DHT22;2290;48.674;9.018;2023-02-28T11:22:57;1.90;99.90
4556;DHT22;2290;48.674;9.018;2023-02-28T11:25:30;2.10;99.90
4556;DHT22;2290;48.674;9.018;2023-02-28T11:28:01;2.20;99.90
4556;DHT22;2290;48.674;9.018;2023-02-28T11:30:35;2.40;99.90
4556;DHT22;2290;48.674;9.018;2023-02-28T11:35:45;2.60;99.90
4556;DHT22;2290;48.674;9.018;2023-02-28T11:38:12;2.60;99.90
4556;DHT22;2290;48.674;9.018;2023-02-28T11:43:22;2.40;99.90
4556;DHT22;2290;48.674;9.018;2023-02-28T11:49:37;2.70;99.90
4556;DHT22;2290;48.674;9.018;2023-02-28T11:55:26;3.20;99.90
4556;DHT22;2290;48.674;9.018;2023-02-28T11:58:19;3.60;99.90
4556;DHT22;2290;48.674;9.018;2023-02-28T12:01:20;4.00;99.90
4556;DHT22;2290;48.674;9.018;2023-02-28T12:03:58;4.40;99.90
4556;DHT22;2290;48.674;9.018;2023-02-28T12:06:25;4.90;99.90
4556;DHT22;2290;48.674;9.018;2023-02-28T12:09:34;5.20;99.90
4556;DHT22;2290;48.674;9.018;2023-02-28T12:12:35;5.40;99.90
4556;DHT22;2290;48.674;9.018;2023-02-28T12:15:27;5.80;99.90
4556;DHT22;2290;48.674;9.018;2023-02-28T12:21:14;6.10;98.90
4556;DHT22;2290;48.674;9.018;2023-02-28T12:26:28;6.30;98.60
4556;DHT22;2290;48.674;9.018;2023-02-28T12:29:14;6.30;98.40
4556;DHT22;2290;48.674;9.018;2023-02-28T12:31:55;6.20;98.40
4556;DHT22;2290;48.674;9.018;2023-02-28T12:35:04;5.80;98.40
4556;DHT22;2290;48.674;9.018;2023-02-28T12:37:47;5.70;98.80
4556;DHT22;2290;48.674;9.018;2023-02-28T12:40:21;5.70;98.80
4556;DHT22;2290;48.674;9.018;2023-02-28T12:42:55;5.70;98.70
4556;DHT22;2290;48.674;9.018;2023-02-28T12:45:23;5.60;98.60
4556;DHT22;2290;48.674;9.018;2023-02-28T12:47:59;5.80;98.70
4556;DHT22;2290;48.674;9.018;2023-02-28T12:50:26;5.80;98.40
4556;DHT22;2290;48.674;9.018;2023-02-28T12:52:59;5.90;98.50
4556;DHT22;2290;48.674;9.018;2023-02-28T12:58:27;6.00;98.50
4556;DHT22;2290;48.674;9.018;2023-02-28T13:01:29;6.10;98.50
4556;DHT22;2290;48.674;9.018;2023-02-28T13:07:28;6.40;97.90
4556;DHT22;2290;48.674;9.018;2023-02-28T13:10:00;6.50;97.60
4556;DHT22;2290;48.674;9.018;2023-02-28T13:12:27;6.60;97.50
4556;DHT22;2290;48.674;9.018;2023-02-28T13:15:19;6.70;97.00
4556;DHT22;2290;48.674;9.018;2023-02-28T13:17:53;6.60;97.10
4556;DHT22;2290;48.674;9.018;2023-02-28T13:20:29;6.50;97.10
4556;DHT22;2290;48.674;9.018;2023-02-28T13:23:01;6.60;97.20
4556;DHT22;2290;48.674;9.018;2023-02-28T13:28:00;6.60;97.20
4556;DHT22;2290;48.674;9.018;2023-02-28T13:33:23;6.80;96.60
4556;DHT22;2290;48.674;9.018;2023-02-28T13:38:46;7.20;96.50
4556;DHT22;2290;48.674;9.018;2023-02-28T13:41:45;7.70;96.80
4556;DHT22;2290;48.674;9.018;2023-02-28T13:44:22;7.80;96.50
4556;DHT22;2290;48.674;9.018;2023-02-28T14:07:49;11.10;92.60
4556;DHT22;2290;48.674;9.018;2023-02-28T14:10:28;12.50;91.50
4556;DHT22;2290;48.674;9.018;2023-02-28T14:16:07;12.80;88.10
4556;DHT22;2290;48.674;9.018;2023-02-28T14:18:36;13.40;86.80
4556;DHT22;2290;48.674;9.018;2023-02-28T14:21:25;13.60;84.20
4556;DHT22;2290;48.674;9.018;2023-02-28T14:24:59;13.70;83.40
4556;DHT22;2290;48.674;9.018;2023-02-28T14:33:13;15.80;79.20
4556;DHT22;2290;48.674;9.018;2023-02-28T14:36:07;16.10;76.10
4556;DHT22;2290;48.674;9.018;2023-02-28T14:39:13;16.50;75.50
4556;DHT22;2290;48.674;9.018;2023-02-28T14:41:42;17.30;72.30
4556;DHT22;2290;48.674;9.018;2023-02-28T14:44:20;18.20;70.60
4556;DHT22;2290;48.674;9.018;2023-02-28T14:46:50;18.80;67.60
4556;DHT22;2290;48.674;9.018;2023-02-28T14:49:23;18.90;66.30
4556;DHT22;2290;48.674;9.018;2023-02-28T14:52:03;18.30;63.80
4556;DHT22;2290;48.674;9.018;2023-02-28T14:54:35;18.20;63.70
4556;DHT22;2290;48.674;9.018;2023-02-28T14:57:01;18.10;63.30
4556;DHT22;2290;48.674;9.018;2023-02-28T14:59:35;18.30;62.90
4556;DHT22;2290;48.674;9.018;2023-02-28T15:02:21;17.70;63.00
4556;DHT22;2290;48.674;9.018;2023-02-28T15:05:00;18.10;62.90
4556;DHT22;2290;48.674;9.018;2023-02-28T15:07:28;19.10;62.10
4556;DHT22;2290;48.674;9.018;2023-02-28T15:12:41;19.80;59.10
4556;DHT22;2290;48.674;9.018;2023-02-28T15:15:15;20.00;58.20
4556;DHT22;2290;48.674;9.018;2023-02-28T15:17:45;19.70;57.50
4556;DHT22;2290;48.674;9.018;2023-02-28T15:20:14;19.50;58.60
4556;DHT22;2290;48.674;9.018;2023-02-28T15:22:41;20.00;57.40
4556;DHT22;2290;48.674;9.018;2023-02-28T15:25:10;19.90;56.70
4556;DHT22;2290;48.674;9.018;2023-02-28T15:27:46;20.20;57.10
4556;DHT22;2290;48.674;9.018;2023-02-28T15:30:26;20.10;56.40
4556;DHT22;2290;48.674;9.018;2023-02-28T15:33:25;20.10;55.00
4556;DHT22;2290;48.674;9.018;2023-02-28T15:35:51;19.50;56.00
4556;DHT22;2290;48.674;9.018;2023-02-28T15:38:28;19.50;56.00
4556;DHT22;2290;48.674;9.018;2023-02-28T15:40:58;19.40;55.00
4556;DHT22;2290;48.674;9.018;2023-02-28T15:45:59;18.50;55.40
4556;DHT22;2290;48.674;9.018;2023-02-28T15:48:35;18.30;55.30
4556;DHT22;2290;48.674;9.018;2023-02-28T15:51:24;17.90;55.60
4556;DHT22;2290;48.674;9.018;2023-02-28T15:53:58;17.50;61.90
4556;DHT22;2290;48.674;9.018;2023-02-28T15:56:32;17.00;60.10
4556;DHT22;2290;48.674;9.018;2023-02-28T15:59:02;17.10;56.90
4556;DHT22;2290;48.674;9.018;2023-02-28T16:01:31;16.10;56.20
4556;DHT22;2290;48.674;9.018;2023-02-28T16:04:06;15.50;58.20
4556;DHT22;2290;48.674;9.018;2023-02-28T16:07:03;15.50;58.50
4556;DHT22;2290;48.674;9.018;2023-02-28T16:09:30;15.20;58.10
4556;DHT22;2290;48.674;9.018;2023-02-28T16:12:00;14.70;59.30
4556;DHT22;2290;48.674;9.018;2023-02-28T16:14:29;14.60;58.70
4556;DHT22;2290;48.674;9.018;2023-02-28T16:17:06;14.30;59.70
4556;DHT22;2290;48.674;9.018;2023-02-28T16:19:35;14.00;59.90
4556;DHT22;2290;48.674;9.018;2023-02-28T16:22:02;13.80;61.80
4556;DHT22;2290;48.674;9.018;2023-02-28T16:24:27;13.90;61.50
4556;DHT22;2290;48.674;9.018;2023-02-28T16:26:54;14.00;64.10
4556;DHT22;2290;48.674;9.018;2023-02-28T16:29:31;14.10;62.10
4556;DHT22;2290;48.674;9.018;2023-02-28T16:31:57;13.50;62.20
4556;DHT22;2290;48.674;9.018;2023-02-28T16:34:24;12.40;63.00
4556;DHT22;2290;48.674;9.018;2023-02-28T16:36:53;11.60;64.20
4556;DHT22;2290;48.674;9.018;2023-02-28T16:39:19;10.80;64.80
4556;DHT22;2290;48.674;9.018;2023-02-28T16:41:49;10.30;65.90
4556;DHT22;2290;48.674;9.018;2023-02-28T16:44:32;9.60;68.80
4556;DHT22;2290;48.674;9.018;2023-02-28T16:47:03;9.10;69.80
4556;DHT22;2290;48.674;9.018;2023-02-28T16:49:30;8.60;70.60
4556;DHT22;2290;48.674;9.018;2023-02-28T16:51:57;8.10;71.70
4556;DHT22;2290;48.674;9.018;2023-02-28T16:54:24;7.70;72.80
4556;DHT22;2290;48.674;9.018;2023-02-28T16:56:50;7.40;73.80
4556;DHT22;2290;48.674;9.018;2023-02-28T16:59:21;7.00;75.00
4556;DHT22;2290;48.674;9.018;2023-02-28T17:01:50;6.60;76.30
4556;DHT22;2290;48.674;9.018;2023-02-28T17:04:16;6.30;77.60
4556;DHT22;2290;48.674;9.018;2023-02-28T17:06:43;6.00;78.60
4556;DHT22;2290;48.674;9.018;2023-02-28T17:09:21;5.80;79.40
4556;DHT22;2290;48.674;9.018;2023-02-28T17:11:47;5.60;80.50
4556;DHT22;2290;48.674;9.018;2023-02-28T17:14:14;5.30;81.90
4556;DHT22;2290;48.674;9.018;2023-02-28T17:16:42;5.10;82.50
4556;DHT22;2290;48.674;9.018;2023-02-28T17:19:16;4.90;83.70
4556;DHT22;2290;48.674;9.018;2023-02-28T17:21:42;4.80;85.30
4556;DHT22;2290;48.674;9.018;2023-02-28T17:24:09;4.70;85.50
4556;DHT22;2290;48.674;9.018;2023-02-28T17:26:37;4.60;86.00
4556;DHT22;2290;48.674;9.018;2023-02-28T17:29:06;4.50;87.10
4556;DHT22;2290;48.674;9.018;2023-02-28T17:31:36;4.40;87.80
4556;DHT22;2290;48.674;9.018;2023-02-28T17:34:04;4.30;88.60
4556;DHT22;2290;48.674;9.018;2023-02-28T17:36:29;4.20;88.50
4556;DHT22;2290;48.674;9.018;2023-02-28T17:38:55;4.20;89.10
4556;DHT22;2290;48.674;9.018;2023-02-28T17:41:22;4.10;89.60
4556;DHT22;2290;48.674;9.018;2023-02-28T17:43:48;4.00;90.10
4556;DHT22;2290;48.674;9.018;2023-02-28T17:46:29;4.00;90.50
4556;DHT22;2290;48.674;9.018;2023-02-28T17:48:55;3.90;90.90
4556;DHT22;2290;48.674;9.018;2023-02-28T17:51:29;3.80;91.00
4556;DHT22;2290;48.674;9.018;2023-02-28T17:53:56;3.80;91.20
4556;DHT22;2290;48.674;9.018;2023-02-28T17:56:24;3.80;91.30
4556;DHT22;2290;48.674;9.018;2023-02-28T17:58:51;3.80;91.40
4556;DHT22;2290;48.674;9.018;2023-02-28T18:01:19;3.80;91.60
4556;DHT22;2290;48.674;9.018;2023-02-28T18:03:46;3.70;91.70
4556;DHT22;2290;48.674;9.018;2023-02-28T18:06:22;3.60;91.90
4556;DHT22;2290;48.674;9.018;2023-02-28T18:08:50;3.50;92.20
4556;DHT22;2290;48.674;9.018;2023-02-28T18:11:20;3.50;92.40
4556;DHT22;2290;48.674;9.018;2023-02-28T18:13:51;3.40;92.80
4556;DHT22;2290;48.674;9.018;2023-02-28T18:16:19;3.40;93.00
4556;DHT22;2290;48.674;9.018;2023-02-28T18:18:53;3.30;93.10
4556;DHT22;2290;48.674;9.018;2023-02-28T18:21:19;3.30;93.30
4556;DHT22;2290;48.674;9.018;2023-02-28T18:23:47;3.20;93.30
4556;DHT22;2290;48.674;9.018;2023-02-28T18:26:15;3.20;93.40
4556;DHT22;2290;48.674;9.018;2023-02-28T18:28:41;3.20;93.70
4556;DHT22;2290;48.674;9.018;2023-02-28T18:31:10;3.10;93.80
4556;DHT22;2290;48.674;9.018;2023-02-28T18:33:37;3.10;94.00
4556;DHT22;2290;48.674;9.018;2023-02-28T18:36:04;3.00;94.00
4556;DHT22;2290;48.674;9.018;2023-02-28T18:38:29;3.00;94.00
4556;DHT22;2290;48.674;9.018;2023-02-28T18:40:58;3.00;94.20
4556;DHT22;2290;48.674;9.018;2023-02-28T18:43:25;2.90;94.40
4556;DHT22;2290;48.674;9.018;2023-02-28T18:45:51;2.90;94.70
4556;DHT22;2290;48.674;9.018;2023-02-28T18:48:17;2.90;94.60
4556;DHT22;2290;48.674;9.018;2023-02-28T18:50:49;2.90;94.80
4556;DHT22;2290;48.674;9.018;2023-02-28T18:53:17;2.90;95.10
4556;DHT22;2290;48.674;9.018;2023-02-28T18:55:46;2.90;94.90
4556;DHT22;2290;48.674;9.018;2023-02-28T18:58:11;2.90;95.00
4556;DHT22;2290;48.674;9.018;2023-02-28T19:00:37;2.80;95.10
4556;DHT22;2290;48.674;9.018;2023-02-28T19:03:03;2.80;95.20
4556;DHT22;2290;48.674;9.018;2023-02-28T19:05:29;2.80;95.30
4556;DHT22;2290;48.674;9.018;2023-02-28T19:08:01;2.80;95.60
4556;DHT22;2290;48.674;9.018;2023-02-28T19:10:31;2.70;95.70
4556;DHT22;2290;48.674;9.018;2023-02-28T19:12:57;2.70;95.70
4556;DHT22;2290;48.674;9.018;2023-02-28T19:15:23;2.70;95.70
4556;DHT22;2290;48.674;9.018;2023-02-28T19:17:52;2.70;95.70
4556;DHT22;2290;48.674;9.018;2023-02-28T19:20:17;2.70;95.80
4556;DHT22;2290;48.674;9.018;2023-02-28T19:22:44;2.70;95.80
4556;DHT22;2290;48.674;9.018;2023-02-28T19:25:10;2.60;96.00
4556;DHT22;2290;48.674;9.018;2023-02-28T19:27:38;2.70;96.00
4556;DHT22;2290;48.674;9.018;2023-02-28T19:30:04;2.60;96.10
4556;DHT22;2290;48.674;9.018;2023-02-28T19:32:30;2.60;96.10
4556;DHT22;2290;48.674;9.018;2023-02-28T19:34:56;2.60;96.10
4556;DHT22;2290;48.674;9.018;2023-02-28T19:37:22;2.60;96.10
4556;DHT22;2290;48.674;9.018;2023-02-28T19:39:47;2.60;96.40
4556;DHT22;2290;48.674;9.018;2023-02-28T19:42:17;2.50;96.90
4556;DHT22;2290;48.674;9.018;2023-02-28T19:44:43;2.50;96.80
4556;DHT22;2290;48.674;9.018;2023-02-28T19:47:09;2.40;96.90
4556;DHT22;2290;48.674;9.018;2023-02-28T19:49:35;2.40;97.00
4556;DHT22;2290;48.674;9.018;2023-02-28T19:52:02;2.40;97.10
4556;DHT22;2290;48.674;9.018;2023-02-28T19:54:28;2.30;97.50